sensor_id;sensor_type;location;lat;lon;timestamp;temperature;humidity
53073;DHT22;38955;48.916;2.336;2023-05-07T00:00:39;17.00;99.90
53073;DHT22;38955;48.916;2.336;2023-05-07T00:02:42;17.00;99.90
53073;DHT22;38955;48.916;2.336;2023-05-07T00:04:46;17.00;99.90
53073;DHT22;38955;48.916;2.336;2023-05-07T00:06:48;17.10;99.90
53073;DHT22;38955;48.916;2.336;2023-05-07T00:08:50;17.00;99.90
53073;DHT22;38955;48.916;2.336;2023-05-07T00:10:52;16.90;99.90
53073;DHT22;38955;48.916;2.336;2023-05-07T00:12:54;17.00;99.90
53073;DHT22;38955;48.916;2.336;2023-05-07T00:14:56;17.00;99.90
53073;DHT22;38955;48.916;2.336;2023-05-07T00:16:58;17.00;99.90
53073;DHT22;38955;48.916;2.336;2023-05-07T00:19:00;17.00;99.90
53073;DHT22;38955;48.916;2.336;2023-05-07T00:21:04;16.90;99.90
53073;DHT22;38955;48.916;2.336;2023-05-07T00:23:06;16.90;99.90
53073;DHT22;38955;48.916;2.336;2023-05-07T00:25:08;16.90;99.90
53073;DHT22;38955;48.916;2.336;2023-05-07T00:27:11;16.90;99.90
53073;DHT22;38955;48.916;2.336;2023-05-07T00:29:13;17.00;99.90
53073;DHT22;38955;48.916;2.336;2023-05-07T00:31:16;17.00;99.90
53073;DHT22;38955;48.916;2.336;2023-05-07T00:33:18;17.10;99.90
53073;DHT22;38955;48.916;2.336;2023-05-07T00:35:20;17.10;99.90
53073;DHT22;38955;48.916;2.336;2023-05-07T00:37:23;17.10;99.90
53073;DHT22;38955;48.916;2.336;2023-05-07T00:39:25;17.10;99.90
53073;DHT22;38955;48.916;2.336;2023-05-07T00:41:27;17.00;99.90
53073;DHT22;38955;48.916;2.336;2023-05-07T00:43:29;17.00;99.90
53073;DHT22;38955;48.916;2.336;2023-05-07T00:45:32;17.00;99.90
53073;DHT22;38955;48.916;2.336;2023-05-07T00:47:34;17.00;99.90
53073;DHT22;38955;48.916;2.336;2023-05-07T00:49:38;17.10;99.90
53073;DHT22;38955;48.916;2.336;2023-05-07T00:51:41;17.10;99.90
53073;DHT22;38955;48.916;2.336;2023-05-07T00:53:45;17.10;99.90
53073;DHT22;38955;48.916;2.336;2023-05-07T00:55:48;17.00;99.90
53073;DHT22;38955;48.916;2.336;2023-05-07T00:57:50;17.00;99.90
53073;DHT22;38955;48.916;2.336;2023-05-07T00:59:53;17.00;99.90
53073;DHT22;38955;48.916;2.336;2023-05-07T01:01:55;17.10;99.90
53073;DHT22;38955;48.916;2.336;2023-05-07T01:03:57;17.10;99.90
53073;DHT22;38955;48.916;2.336;2023-05-07T01:06:01;17.00;99.90
53073;DHT22;38955;48.916;2.336;2023-05-07T01:08:04;17.00;99.90
53073;DHT22;38955;48.916;2.336;2023-05-07T01:10:09;16.90;99.90
53073;DHT22;38955;48.916;2.336;2023-05-07T01:12:13;17.00;99.90
53073;DHT22;38955;48.916;2.336;2023-05-07T01:14:16;17.00;99.90
53073;DHT22;38955;48.916;2.336;2023-05-07T01:16:18;17.00;99.90
53073;DHT22;38955;48.916;2.336;2023-05-07T01:18:20;17.00;99.90
53073;DHT22;38955;48.916;2.336;2023-05-07T01:20:23;17.00;99.90
53073;DHT22;38955;48.916;2.336;2023-05-07T01:22:31;17.00;99.90
53073;DHT22;38955;48.916;2.336;2023-05-07T01:24:35;16.90;99.90
53073;DHT22;38955;48.916;2.336;2023-05-07T01:26:38;16.90;99.90
53073;DHT22;38955;48.916;2.336;2023-05-07T01:28:41;16.90;99.90
53073;DHT22;38955;48.916;2.336;2023-05-07T01:30:45;16.90;99.90
53073;DHT22;38955;48.916;2.336;2023-05-07T01:32:52;16.90;99.90
53073;DHT22;38955;48.916;2.336;2023-05-07T01:34:56;16.80;99.90
53073;DHT22;38955;48.916;2.336;2023-05-07T01:36:59;16.80;99.90
53073;DHT22;38955;48.916;2.336;2023-05-07T01:39:05;16.80;99.90
53073;DHT22;38955;48.916;2.336;2023-05-07T01:41:07;16.80;99.90
53073;DHT22;38955;48.916;2.336;2023-05-07T01:43:09;16.80;99.90
53073;DHT22;38955;48.916;2.336;2023-05-07T01:45:12;16.80;99.90
53073;DHT22;38955;48.916;2.336;2023-05-07T01:47:14;16.80;99.90
53073;DHT22;38955;48.916;2.336;2023-05-07T01:49:18;16.90;99.90
53073;DHT22;38955;48.916;2.336;2023-05-07T01:51:20;16.90;99.90
53073;DHT22;38955;48.916;2.336;2023-05-07T01:53:23;16.90;99.90
53073;DHT22;38955;48.916;2.336;2023-05-07T01:55:30;17.00;99.90
53073;DHT22;38955;48.916;2.336;2023-05-07T01:57:32;16.90;99.90
53073;DHT22;38955;48.916;2.336;2023-05-07T01:59:34;17.00;99.90
53073;DHT22;38955;48.916;2.336;2023-05-07T02:01:36;16.90;99.90
53073;DHT22;38955;48.916;2.336;2023-05-07T02:03:38;16.90;99.90
53073;DHT22;38955;48.916;2.336;2023-05-07T02:05:40;16.90;99.90
53073;DHT22;38955;48.916;2.336;2023-05-07T02:07:42;16.90;99.90
53073;DHT22;38955;48.916;2.336;2023-05-07T02:09:44;17.00;99.90
53073;DHT22;38955;48.916;2.336;2023-05-07T02:11:48;16.90;99.90
53073;DHT22;38955;48.916;2.336;2023-05-07T02:13:50;16.90;99.90
53073;DHT22;38955;48.916;2.336;2023-05-07T02:15:52;17.00;99.90
53073;DHT22;38955;48.916;2.336;2023-05-07T02:17:59;17.00;99.90
53073;DHT22;38955;48.916;2.336;2023-05-07T02:20:03;17.00;99.90
53073;DHT22;38955;48.916;2.336;2023-05-07T02:22:07;17.00;99.90
53073;DHT22;38955;48.916;2.336;2023-05-07T02:24:09;16.90;99.90
53073;DHT22;38955;48.916;2.336;2023-05-07T02:26:11;16.90;99.90
53073;DHT22;38955;48.916;2.336;2023-05-07T02:28:14;16.80;99.90
53073;DHT22;38955;48.916;2.336;2023-05-07T02:30:17;16.80;99.90
53073;DHT22;38955;48.916;2.336;2023-05-07T02:32:19;16.80;99.90
53073;DHT22;38955;48.916;2.336;2023-05-07T02:34:21;16.90;99.90
53073;DHT22;38955;48.916;2.336;2023-05-07T02:36:23;16.90;99.90
53073;DHT22;38955;48.916;2.336;2023-05-07T02:38:26;17.00;99.90
53073;DHT22;38955;48.916;2.336;2023-05-07T02:40:28;17.00;99.90
53073;DHT22;38955;48.916;2.336;2023-05-07T02:42:30;17.00;99.90
53073;DHT22;38955;48.916;2.336;2023-05-07T02:44:34;17.10;99.90
53073;DHT22;38955;48.916;2.336;2023-05-07T02:46:37;17.10;99.90
53073;DHT22;38955;48.916;2.336;2023-05-07T02:48:39;17.10;99.90
53073;DHT22;38955;48.916;2.336;2023-05-07T02:50:41;17.20;99.90
53073;DHT22;38955;48.916;2.336;2023-05-07T02:52:43;17.10;99.90
53073;DHT22;38955;48.916;2.336;2023-05-07T02:54:45;17.10;99.90
53073;DHT22;38955;48.916;2.336;2023-05-07T02:56:47;17.10;99.90
53073;DHT22;38955;48.916;2.336;2023-05-07T02:58:49;17.00;99.90
53073;DHT22;38955;48.916;2.336;2023-05-07T03:00:53;17.10;99.90
53073;DHT22;38955;48.916;2.336;2023-05-07T03:02:58;17.10;99.90
53073;DHT22;38955;48.916;2.336;2023-05-07T03:05:00;17.20;99.90
53073;DHT22;38955;48.916;2.336;2023-05-07T03:07:03;17.10;99.90
53073;DHT22;38955;48.916;2.336;2023-05-07T03:09:07;17.10;99.90
53073;DHT22;38955;48.916;2.336;2023-05-07T03:11:09;17.20;99.90
53073;DHT22;38955;48.916;2.336;2023-05-07T03:13:11;17.20;99.90
53073;DHT22;38955;48.916;2.336;2023-05-07T03:15:13;17.20;99.90
53073;DHT22;38955;48.916;2.336;2023-05-07T03:17:17;17.20;99.90
53073;DHT22;38955;48.916;2.336;2023-05-07T03:19:19;17.10;99.90
53073;DHT22;38955;48.916;2.336;2023-05-07T03:21:21;17.10;99.90
53073;DHT22;38955;48.916;2.336;2023-05-07T03:23:23;17.10;99.90
53073;DHT22;38955;48.916;2.336;2023-05-07T03:25:26;17.10;99.90
53073;DHT22;38955;48.916;2.336;2023-05-07T03:27:28;17.10;99.90
53073;DHT22;38955;48.916;2.336;2023-05-07T03:29:30;17.10;99.90
53073;DHT22;38955;48.916;2.336;2023-05-07T03:31:32;17.20;99.90
53073;DHT22;38955;48.916;2.336;2023-05-07T03:33:38;17.20;99.90
53073;DHT22;38955;48.916;2.336;2023-05-07T03:35:41;17.20;99.90
53073;DHT22;38955;48.916;2.336;2023-05-07T03:37:43;17.30;99.90
53073;DHT22;38955;48.916;2.336;2023-05-07T03:39:45;17.30;99.90
53073;DHT22;38955;48.916;2.336;2023-05-07T03:41:47;17.30;99.90
53073;DHT22;38955;48.916;2.336;2023-05-07T03:43:49;17.30;99.90
53073;DHT22;38955;48.916;2.336;2023-05-07T03:45:51;17.30;99.90
53073;DHT22;38955;48.916;2.336;2023-05-07T03:47:54;17.30;99.90
53073;DHT22;38955;48.916;2.336;2023-05-07T03:49:57;17.20;99.90
53073;DHT22;38955;48.916;2.336;2023-05-07T03:51:59;17.30;99.90
53073;DHT22;38955;48.916;2.336;2023-05-07T03:54:01;17.20;99.90
53073;DHT22;38955;48.916;2.336;2023-05-07T03:56:04;17.10;99.90
53073;DHT22;38955;48.916;2.336;2023-05-07T03:58:06;17.10;99.90
53073;DHT22;38955;48.916;2.336;2023-05-07T04:00:09;17.10;99.90
53073;DHT22;38955;48.916;2.336;2023-05-07T04:02:12;17.00;99.90
53073;DHT22;38955;48.916;2.336;2023-05-07T04:04:14;17.00;99.90
53073;DHT22;38955;48.916;2.336;2023-05-07T04:06:19;16.90;99.90
53073;DHT22;38955;48.916;2.336;2023-05-07T04:08:22;16.90;99.90
53073;DHT22;38955;48.916;2.336;2023-05-07T04:10:24;16.90;99.90
53073;DHT22;38955;48.916;2.336;2023-05-07T04:12:29;16.80;99.90
53073;DHT22;38955;48.916;2.336;2023-05-07T04:14:31;16.90;99.90
53073;DHT22;38955;48.916;2.336;2023-05-07T04:16:34;16.80;99.90
53073;DHT22;38955;48.916;2.336;2023-05-07T04:18:36;16.80;99.90
53073;DHT22;38955;48.916;2.336;2023-05-07T04:20:40;16.80;99.90
53073;DHT22;38955;48.916;2.336;2023-05-07T04:22:43;16.80;99.90
53073;DHT22;38955;48.916;2.336;2023-05-07T04:24:45;16.90;99.90
53073;DHT22;38955;48.916;2.336;2023-05-07T04:26:47;16.90;99.90
53073;DHT22;38955;48.916;2.336;2023-05-07T04:28:49;16.90;99.90
53073;DHT22;38955;48.916;2.336;2023-05-07T04:30:51;16.90;99.90
53073;DHT22;38955;48.916;2.336;2023-05-07T04:32:53;16.90;99.90
53073;DHT22;38955;48.916;2.336;2023-05-07T04:34:58;16.90;99.90
53073;DHT22;38955;48.916;2.336;2023-05-07T04:37:00;16.90;99.90
53073;DHT22;38955;48.916;2.336;2023-05-07T04:39:04;16.90;99.90
53073;DHT22;38955;48.916;2.336;2023-05-07T04:41:08;17.00;99.90
53073;DHT22;38955;48.916;2.336;2023-05-07T04:43:11;17.00;99.90
53073;DHT22;38955;48.916;2.336;2023-05-07T04:45:13;16.90;99.90
53073;DHT22;38955;48.916;2.336;2023-05-07T04:47:16;16.90;99.90
53073;DHT22;38955;48.916;2.336;2023-05-07T04:49:18;16.90;99.90
53073;DHT22;38955;48.916;2.336;2023-05-07T04:51:21;17.00;99.90
53073;DHT22;38955;48.916;2.336;2023-05-07T04:53:23;17.00;99.90
53073;DHT22;38955;48.916;2.336;2023-05-07T04:55:26;17.00;99.90
53073;DHT22;38955;48.916;2.336;2023-05-07T04:57:28;16.90;99.90
53073;DHT22;38955;48.916;2.336;2023-05-07T04:59:30;17.00;99.90
53073;DHT22;38955;48.916;2.336;2023-05-07T05:01:33;17.00;99.90
53073;DHT22;38955;48.916;2.336;2023-05-07T05:03:35;17.00;99.90
53073;DHT22;38955;48.916;2.336;2023-05-07T05:05:38;17.00;99.90
53073;DHT22;38955;48.916;2.336;2023-05-07T05:07:41;17.00;99.90
53073;DHT22;38955;48.916;2.336;2023-05-07T05:09:43;17.00;99.90
53073;DHT22;38955;48.916;2.336;2023-05-07T05:11:46;16.90;99.90
53073;DHT22;38955;48.916;2.336;2023-05-07T05:13:49;17.00;99.90
53073;DHT22;38955;48.916;2.336;2023-05-07T05:15:51;17.00;99.90
53073;DHT22;38955;48.916;2.336;2023-05-07T05:17:53;17.00;99.90
53073;DHT22;38955;48.916;2.336;2023-05-07T05:19:55;17.00;99.90
53073;DHT22;38955;48.916;2.336;2023-05-07T05:21:57;17.00;99.90
53073;DHT22;38955;48.916;2.336;2023-05-07T05:23:59;17.10;99.90
53073;DHT22;38955;48.916;2.336;2023-05-07T05:26:02;17.10;99.90
53073;DHT22;38955;48.916;2.336;2023-05-07T05:28:05;17.00;99.90
53073;DHT22;38955;48.916;2.336;2023-05-07T05:30:08;17.00;99.90
53073;DHT22;38955;48.916;2.336;2023-05-07T05:32:11;17.00;99.90
53073;DHT22;38955;48.916;2.336;2023-05-07T05:34:13;17.00;99.90
53073;DHT22;38955;48.916;2.336;2023-05-07T05:36:16;17.00;99.90
53073;DHT22;38955;48.916;2.336;2023-05-07T05:38:18;16.90;99.90
53073;DHT22;38955;48.916;2.336;2023-05-07T05:40:20;16.90;99.90
53073;DHT22;38955;48.916;2.336;2023-05-07T05:42:23;17.00;99.90
53073;DHT22;38955;48.916;2.336;2023-05-07T05:44:26;16.90;99.90
53073;DHT22;38955;48.916;2.336;2023-05-07T05:46:28;17.00;99.90
53073;DHT22;38955;48.916;2.336;2023-05-07T05:48:31;17.10;99.90
53073;DHT22;38955;48.916;2.336;2023-05-07T05:50:33;17.10;99.90
53073;DHT22;38955;48.916;2.336;2023-05-07T05:52:37;17.10;99.90
53073;DHT22;38955;48.916;2.336;2023-05-07T05:54:39;17.20;99.90
53073;DHT22;38955;48.916;2.336;2023-05-07T05:56:41;17.20;99.90
53073;DHT22;38955;48.916;2.336;2023-05-07T05:58:43;17.30;99.90
53073;DHT22;38955;48.916;2.336;2023-05-07T06:00:47;17.30;99.90
53073;DHT22;38955;48.916;2.336;2023-05-07T06:02:50;17.20;99.90
53073;DHT22;38955;48.916;2.336;2023-05-07T06:04:52;17.20;99.90
53073;DHT22;38955;48.916;2.336;2023-05-07T06:06:54;17.20;99.90
53073;DHT22;38955;48.916;2.336;2023-05-07T06:08:57;17.30;99.90
53073;DHT22;38955;48.916;2.336;2023-05-07T06:10:59;17.30;99.90
53073;DHT22;38955;48.916;2.336;2023-05-07T06:13:02;17.30;99.90
53073;DHT22;38955;48.916;2.336;2023-05-07T06:15:06;17.30;99.90
53073;DHT22;38955;48.916;2.336;2023-05-07T06:17:10;17.30;99.90
53073;DHT22;38955;48.916;2.336;2023-05-07T06:19:12;17.40;99.90
53073;DHT22;38955;48.916;2.336;2023-05-07T06:21:14;17.40;99.90
53073;DHT22;38955;48.916;2.336;2023-05-07T06:23:17;17.40;99.90
53073;DHT22;38955;48.916;2.336;2023-05-07T06:25:19;17.40;99.90
53073;DHT22;38955;48.916;2.336;2023-05-07T06:27:22;17.40;99.90
53073;DHT22;38955;48.916;2.336;2023-05-07T06:29:24;17.40;99.90
53073;DHT22;38955;48.916;2.336;2023-05-07T06:31:30;17.40;99.90
53073;DHT22;38955;48.916;2.336;2023-05-07T06:33:36;17.30;99.90
53073;DHT22;38955;48.916;2.336;2023-05-07T06:35:38;17.40;99.90
53073;DHT22;38955;48.916;2.336;2023-05-07T06:37:41;17.40;99.90
53073;DHT22;38955;48.916;2.336;2023-05-07T06:39:44;17.40;99.90
53073;DHT22;38955;48.916;2.336;2023-05-07T06:41:46;17.50;99.90
53073;DHT22;38955;48.916;2.336;2023-05-07T06:43:48;17.40;99.90
53073;DHT22;38955;48.916;2.336;2023-05-07T06:45:50;17.40;99.90
53073;DHT22;38955;48.916;2.336;2023-05-07T06:47:52;17.50;99.90
53073;DHT22;38955;48.916;2.336;2023-05-07T06:49:56;17.50;99.90
53073;DHT22;38955;48.916;2.336;2023-05-07T06:51:58;17.40;99.90
53073;DHT22;38955;48.916;2.336;2023-05-07T06:54:00;17.50;99.90
53073;DHT22;38955;48.916;2.336;2023-05-07T06:56:02;17.50;99.90
53073;DHT22;38955;48.916;2.336;2023-05-07T06:58:04;17.50;99.90
53073;DHT22;38955;48.916;2.336;2023-05-07T07:00:08;17.50;99.90
53073;DHT22;38955;48.916;2.336;2023-05-07T07:02:12;17.40;99.90
53073;DHT22;38955;48.916;2.336;2023-05-07T07:04:15;17.50;99.90
53073;DHT22;38955;48.916;2.336;2023-05-07T07:06:19;17.50;99.90
53073;DHT22;38955;48.916;2.336;2023-05-07T07:08:22;17.60;99.90
53073;DHT22;38955;48.916;2.336;2023-05-07T07:10:24;17.60;99.90
53073;DHT22;38955;48.916;2.336;2023-05-07T07:12:26;17.70;99.90
53073;DHT22;38955;48.916;2.336;2023-05-07T07:14:28;17.70;99.90
53073;DHT22;38955;48.916;2.336;2023-05-07T07:16:30;17.70;99.90
53073;DHT22;38955;48.916;2.336;2023-05-07T07:18:32;17.80;99.90
53073;DHT22;38955;48.916;2.336;2023-05-07T07:20:34;17.80;99.90
53073;DHT22;38955;48.916;2.336;2023-05-07T07:22:38;17.80;99.90
53073;DHT22;38955;48.916;2.336;2023-05-07T07:24:40;17.80;99.90
53073;DHT22;38955;48.916;2.336;2023-05-07T07:26:42;17.70;99.90
53073;DHT22;38955;48.916;2.336;2023-05-07T07:28:44;17.70;99.90
53073;DHT22;38955;48.916;2.336;2023-05-07T07:30:47;17.70;99.90
53073;DHT22;38955;48.916;2.336;2023-05-07T07:32:49;17.70;99.90
53073;DHT22;38955;48.916;2.336;2023-05-07T07:34:51;17.70;99.90
53073;DHT22;38955;48.916;2.336;2023-05-07T07:36:53;17.80;99.90
53073;DHT22;38955;48.916;2.336;2023-05-07T07:38:56;17.80;99.90
53073;DHT22;38955;48.916;2.336;2023-05-07T07:40:58;17.80;99.90
53073;DHT22;38955;48.916;2.336;2023-05-07T07:43:00;17.80;99.90
53073;DHT22;38955;48.916;2.336;2023-05-07T07:45:03;17.80;99.90
53073;DHT22;38955;48.916;2.336;2023-05-07T07:47:06;17.80;99.90
53073;DHT22;38955;48.916;2.336;2023-05-07T07:49:08;17.80;99.90
53073;DHT22;38955;48.916;2.336;2023-05-07T07:51:10;17.80;99.90
53073;DHT22;38955;48.916;2.336;2023-05-07T07:53:12;17.80;99.90
53073;DHT22;38955;48.916;2.336;2023-05-07T07:55:20;17.80;99.90
53073;DHT22;38955;48.916;2.336;2023-05-07T07:57:26;17.80;99.90
53073;DHT22;38955;48.916;2.336;2023-05-07T07:59:28;17.80;99.90
53073;DHT22;38955;48.916;2.336;2023-05-07T08:01:30;17.90;99.90
53073;DHT22;38955;48.916;2.336;2023-05-07T08:03:33;17.90;99.90
53073;DHT22;38955;48.916;2.336;2023-05-07T08:05:35;17.90;99.90
53073;DHT22;38955;48.916;2.336;2023-05-07T08:07:38;17.90;99.90
53073;DHT22;38955;48.916;2.336;2023-05-07T08:09:40;17.90;99.90
53073;DHT22;38955;48.916;2.336;2023-05-07T08:11:43;18.00;99.90
53073;DHT22;38955;48.916;2.336;2023-05-07T08:13:46;18.00;99.90
53073;DHT22;38955;48.916;2.336;2023-05-07T08:15:48;18.00;99.90
53073;DHT22;38955;48.916;2.336;2023-05-07T08:17:50;18.00;99.90
53073;DHT22;38955;48.916;2.336;2023-05-07T08:19:52;18.00;99.90
53073;DHT22;38955;48.916;2.336;2023-05-07T08:21:54;18.00;99.90
53073;DHT22;38955;48.916;2.336;2023-05-07T08:23:57;18.10;99.90
53073;DHT22;38955;48.916;2.336;2023-05-07T08:25:59;18.10;99.90
53073;DHT22;38955;48.916;2.336;2023-05-07T08:28:03;18.10;99.90
53073;DHT22;38955;48.916;2.336;2023-05-07T08:30:06;18.10;99.90
53073;DHT22;38955;48.916;2.336;2023-05-07T08:32:08;18.10;99.90
53073;DHT22;38955;48.916;2.336;2023-05-07T08:34:10;18.10;99.90
53073;DHT22;38955;48.916;2.336;2023-05-07T08:36:12;18.10;99.90
53073;DHT22;38955;48.916;2.336;2023-05-07T08:38:14;18.20;99.90
53073;DHT22;38955;48.916;2.336;2023-05-07T08:40:17;18.30;99.90
53073;DHT22;38955;48.916;2.336;2023-05-07T08:42:21;18.30;99.90
53073;DHT22;38955;48.916;2.336;2023-05-07T08:44:26;18.40;99.90
53073;DHT22;38955;48.916;2.336;2023-05-07T08:46:31;18.50;99.90
53073;DHT22;38955;48.916;2.336;2023-05-07T08:48:34;18.50;99.90
53073;DHT22;38955;48.916;2.336;2023-05-07T08:50:36;18.50;99.90
53073;DHT22;38955;48.916;2.336;2023-05-07T08:52:39;18.60;99.90
53073;DHT22;38955;48.916;2.336;2023-05-07T08:54:41;18.60;99.90
53073;DHT22;38955;48.916;2.336;2023-05-07T08:56:44;18.60;99.90
53073;DHT22;38955;48.916;2.336;2023-05-07T08:58:47;18.70;99.90
53073;DHT22;38955;48.916;2.336;2023-05-07T09:00:52;18.60;99.90
53073;DHT22;38955;48.916;2.336;2023-05-07T09:02:54;18.60;99.90
53073;DHT22;38955;48.916;2.336;2023-05-07T09:04:56;18.60;99.90
53073;DHT22;38955;48.916;2.336;2023-05-07T09:06:58;18.60;99.90
53073;DHT22;38955;48.916;2.336;2023-05-07T09:09:07;18.50;99.90
53073;DHT22;38955;48.916;2.336;2023-05-07T09:11:09;18.50;99.90
53073;DHT22;38955;48.916;2.336;2023-05-07T09:13:12;18.40;99.90
53073;DHT22;38955;48.916;2.336;2023-05-07T09:15:17;18.30;99.90
53073;DHT22;38955;48.916;2.336;2023-05-07T09:17:20;18.40;99.90
53073;DHT22;38955;48.916;2.336;2023-05-07T09:19:23;18.40;99.90
53073;DHT22;38955;48.916;2.336;2023-05-07T09:21:25;18.40;99.90
53073;DHT22;38955;48.916;2.336;2023-05-07T09:23:28;18.40;99.90
53073;DHT22;38955;48.916;2.336;2023-05-07T09:25:31;18.40;99.90
53073;DHT22;38955;48.916;2.336;2023-05-07T09:27:34;18.40;99.90
53073;DHT22;38955;48.916;2.336;2023-05-07T09:29:36;18.40;99.90
53073;DHT22;38955;48.916;2.336;2023-05-07T09:31:38;18.50;99.90
53073;DHT22;38955;48.916;2.336;2023-05-07T09:33:42;18.60;99.90
53073;DHT22;38955;48.916;2.336;2023-05-07T09:35:44;18.70;99.90
53073;DHT22;38955;48.916;2.336;2023-05-07T09:37:46;18.90;99.90
53073;DHT22;38955;48.916;2.336;2023-05-07T09:39:49;18.90;99.90
53073;DHT22;38955;48.916;2.336;2023-05-07T09:41:51;19.00;99.90
53073;DHT22;38955;48.916;2.336;2023-05-07T09:43:56;19.10;99.90
53073;DHT22;38955;48.916;2.336;2023-05-07T09:45:58;19.10;99.90
53073;DHT22;38955;48.916;2.336;2023-05-07T09:48:02;19.20;99.90
53073;DHT22;38955;48.916;2.336;2023-05-07T09:50:09;19.30;99.90
53073;DHT22;38955;48.916;2.336;2023-05-07T09:52:13;19.30;99.90
53073;DHT22;38955;48.916;2.336;2023-05-07T09:54:16;19.30;99.90
53073;DHT22;38955;48.916;2.336;2023-05-07T09:56:18;19.40;99.90
53073;DHT22;38955;48.916;2.336;2023-05-07T09:58:21;19.40;99.90
53073;DHT22;38955;48.916;2.336;2023-05-07T10:00:25;19.40;99.90
53073;DHT22;38955;48.916;2.336;2023-05-07T10:02:30;19.40;99.90
53073;DHT22;38955;48.916;2.336;2023-05-07T10:04:32;19.50;99.90
53073;DHT22;38955;48.916;2.336;2023-05-07T10:06:36;19.60;99.90
53073;DHT22;38955;48.916;2.336;2023-05-07T10:08:43;19.60;99.90
53073;DHT22;38955;48.916;2.336;2023-05-07T10:10:46;19.60;99.90
53073;DHT22;38955;48.916;2.336;2023-05-07T10:12:49;19.60;99.90
53073;DHT22;38955;48.916;2.336;2023-05-07T10:14:53;19.70;99.90
53073;DHT22;38955;48.916;2.336;2023-05-07T10:16:56;19.60;99.90
53073;DHT22;38955;48.916;2.336;2023-05-07T10:18:59;19.60;99.90
53073;DHT22;38955;48.916;2.336;2023-05-07T10:21:04;19.50;99.90
53073;DHT22;38955;48.916;2.336;2023-05-07T10:23:13;19.40;99.90
53073;DHT22;38955;48.916;2.336;2023-05-07T10:25:18;19.40;99.90
53073;DHT22;38955;48.916;2.336;2023-05-07T10:27:21;19.40;99.90
53073;DHT22;38955;48.916;2.336;2023-05-07T10:29:32;19.30;99.90
53073;DHT22;38955;48.916;2.336;2023-05-07T10:31:50;19.30;99.90
53073;DHT22;38955;48.916;2.336;2023-05-07T10:33:56;19.30;99.90
53073;DHT22;38955;48.916;2.336;2023-05-07T10:35:59;19.30;99.90
53073;DHT22;38955;48.916;2.336;2023-05-07T10:38:02;19.40;99.90
53073;DHT22;38955;48.916;2.336;2023-05-07T10:40:07;19.40;99.90
53073;DHT22;38955;48.916;2.336;2023-05-07T10:42:10;19.30;99.90
53073;DHT22;38955;48.916;2.336;2023-05-07T10:44:25;19.30;99.90
53073;DHT22;38955;48.916;2.336;2023-05-07T10:46:27;19.50;99.90
53073;DHT22;38955;48.916;2.336;2023-05-07T10:48:29;19.50;99.90
53073;DHT22;38955;48.916;2.336;2023-05-07T10:50:32;19.70;99.90
53073;DHT22;38955;48.916;2.336;2023-05-07T10:52:34;19.80;99.90
53073;DHT22;38955;48.916;2.336;2023-05-07T10:54:36;19.90;99.90
53073;DHT22;38955;48.916;2.336;2023-05-07T10:56:40;20.00;99.90
53073;DHT22;38955;48.916;2.336;2023-05-07T10:58:44;20.10;99.90
53073;DHT22;38955;48.916;2.336;2023-05-07T11:00:47;20.10;99.90
53073;DHT22;38955;48.916;2.336;2023-05-07T11:03:05;20.20;99.90
53073;DHT22;38955;48.916;2.336;2023-05-07T11:05:21;20.20;99.90
53073;DHT22;38955;48.916;2.336;2023-05-07T11:07:28;20.20;99.90
53073;DHT22;38955;48.916;2.336;2023-05-07T11:09:58;20.10;99.90
53073;DHT22;38955;48.916;2.336;2023-05-07T11:12:04;20.10;99.90
53073;DHT22;38955;48.916;2.336;2023-05-07T11:14:06;20.00;99.90
53073;DHT22;38955;48.916;2.336;2023-05-07T11:16:17;20.00;99.90
53073;DHT22;38955;48.916;2.336;2023-05-07T11:18:19;20.10;99.90
53073;DHT22;38955;48.916;2.336;2023-05-07T11:20:49;20.00;99.90
53073;DHT22;38955;48.916;2.336;2023-05-07T11:22:54;20.20;99.90
53073;DHT22;38955;48.916;2.336;2023-05-07T11:24:59;20.20;99.90
53073;DHT22;38955;48.916;2.336;2023-05-07T11:27:03;20.10;99.90
53073;DHT22;38955;48.916;2.336;2023-05-07T11:29:10;20.10;99.90
53073;DHT22;38955;48.916;2.336;2023-05-07T11:31:12;20.10;99.90
53073;DHT22;38955;48.916;2.336;2023-05-07T11:33:17;20.10;99.90
53073;DHT22;38955;48.916;2.336;2023-05-07T11:35:22;20.20;99.90
53073;DHT22;38955;48.916;2.336;2023-05-07T11:37:27;20.20;99.90
53073;DHT22;38955;48.916;2.336;2023-05-07T11:39:32;20.40;99.90
53073;DHT22;38955;48.916;2.336;2023-05-07T11:41:36;20.50;99.90
53073;DHT22;38955;48.916;2.336;2023-05-07T11:43:54;20.70;99.90
53073;DHT22;38955;48.916;2.336;2023-05-07T11:46:05;20.80;99.90
53073;DHT22;38955;48.916;2.336;2023-05-07T11:48:09;20.90;99.90
53073;DHT22;38955;48.916;2.336;2023-05-07T11:50:11;20.90;99.90
53073;DHT22;38955;48.916;2.336;2023-05-07T11:52:13;20.90;99.90
53073;DHT22;38955;48.916;2.336;2023-05-07T11:54:16;20.90;99.90
53073;DHT22;38955;48.916;2.336;2023-05-07T11:56:18;20.80;99.90
53073;DHT22;38955;48.916;2.336;2023-05-07T11:58:21;20.80;99.90
53073;DHT22;38955;48.916;2.336;2023-05-07T12:00:25;20.80;99.90
53073;DHT22;38955;48.916;2.336;2023-05-07T12:02:27;20.60;99.90
53073;DHT22;38955;48.916;2.336;2023-05-07T12:04:30;20.50;99.90
53073;DHT22;38955;48.916;2.336;2023-05-07T12:06:36;20.30;99.90
53073;DHT22;38955;48.916;2.336;2023-05-07T12:08:40;20.30;99.90
53073;DHT22;38955;48.916;2.336;2023-05-07T12:10:43;20.10;99.90
53073;DHT22;38955;48.916;2.336;2023-05-07T12:12:46;20.10;99.90
53073;DHT22;38955;48.916;2.336;2023-05-07T12:14:48;20.10;99.90
53073;DHT22;38955;48.916;2.336;2023-05-07T12:16:51;20.20;99.90
53073;DHT22;38955;48.916;2.336;2023-05-07T12:18:54;20.30;99.90
53073;DHT22;38955;48.916;2.336;2023-05-07T12:20:57;20.30;99.90
53073;DHT22;38955;48.916;2.336;2023-05-07T12:22:59;20.30;99.90
53073;DHT22;38955;48.916;2.336;2023-05-07T12:25:01;20.50;99.90
53073;DHT22;38955;48.916;2.336;2023-05-07T12:27:05;20.50;99.90
53073;DHT22;38955;48.916;2.336;2023-05-07T12:29:07;20.70;99.90
53073;DHT22;38955;48.916;2.336;2023-05-07T12:31:09;20.80;99.90
53073;DHT22;38955;48.916;2.336;2023-05-07T12:33:16;20.80;99.90
53073;DHT22;38955;48.916;2.336;2023-05-07T12:35:26;20.70;99.90
53073;DHT22;38955;48.916;2.336;2023-05-07T12:37:28;20.70;99.90
53073;DHT22;38955;48.916;2.336;2023-05-07T12:39:36;20.60;99.90
53073;DHT22;38955;48.916;2.336;2023-05-07T12:41:53;20.50;99.90
53073;DHT22;38955;48.916;2.336;2023-05-07T12:43:56;20.40;99.90
53073;DHT22;38955;48.916;2.336;2023-05-07T12:46:00;20.30;99.90
53073;DHT22;38955;48.916;2.336;2023-05-07T12:48:03;20.20;99.90
53073;DHT22;38955;48.916;2.336;2023-05-07T12:50:08;20.10;99.90
53073;DHT22;38955;48.916;2.336;2023-05-07T12:52:11;20.10;99.90
53073;DHT22;38955;48.916;2.336;2023-05-07T12:54:13;20.00;99.90
53073;DHT22;38955;48.916;2.336;2023-05-07T12:56:16;20.00;99.90
53073;DHT22;38955;48.916;2.336;2023-05-07T12:58:19;20.00;99.90